Погода Оутапина 2 недели

Хардап, Намибия

29 февраля-13 марта
  • 29февраля
    Сегодня
    +22°
    +34°
    Ясно и безоблачно
    ВремяПогодаТемператураВлажностьДавлениеВетер, м/сВероятность осадков
    02:00Практически безоблачно+24°C60 %672 мм1.2 м/с43 %
    05:00Практически безоблачно+23°C68 %670 мм1.1 м/с2 %
    08:00Ясно и безоблачно+23°C66 %671 мм1.9 м/с5 %
    11:00Ясно и безоблачно+29°C38 %673 мм3.4 м/с3 %
    14:00Ясно и безоблачно+33°C28 %672 мм5.1 м/с5 %
    17:00Практически безоблачно+34°C24 %670 мм3.7 м/с5 %
    20:00Практически безоблачно+32°C26 %670 мм2.1 м/с4 %
    23:00Практически безоблачно+28°C32 %670 мм2.2 м/с3 %
  • 01марта
    Пятница
    +21°
    +35°
    Практически безоблачно
    ВремяПогодаТемператураВлажностьДавлениеВетер, м/сВероятность осадков
    02:00Практически безоблачно+26°C47 %670 мм1.7 м/с6 %
    05:00Практически безоблачно+24°C54 %670 мм2.0 м/с7 %
    08:00Ясно и безоблачно+24°C57 %671 мм2.0 м/с10 %
    11:00Небольшая облачность+31°C32 %673 мм3.7 м/с11 %
    14:00Практически безоблачно+35°C23 %672 мм4.3 м/с11 %
    17:00Небольшая облачность+35°C20 %670 мм3.8 м/с7 %
    20:00Небольшая облачность+30°C30 %671 мм4.4 м/с10 %
    23:00Практически безоблачно+26°C43 %672 мм3.7 м/с16 %
  • 02марта
    Суббота
    +21°
    +35°
    Ясно и безоблачно
    ВремяПогодаТемператураВлажностьДавлениеВетер, м/сВероятность осадков
    02:00Ясно и безоблачно+24°C50 %670 мм4.2 м/с10 %
    05:00Ясно и безоблачно+22°C56 %670 мм3.3 м/с9 %
    08:00Ясно и безоблачно+22°C57 %671 мм2.1 м/с8 %
    11:00Ясно и безоблачно+30°C32 %673 мм2.0 м/с5 %
    14:00Ясно и безоблачно+34°C21 %672 мм2.1 м/с5 %
    17:00Ясно и безоблачно+35°C18 %670 мм2.0 м/с5 %
    20:00Практически безоблачно+33°C20 %670 мм2.2 м/с4 %
    23:00Практически безоблачно+29°C27 %671 мм1.4 м/с3 %
  • 03марта
    Воскресенье
    +21°
    +36°
    Практически безоблачно
    ВремяПогодаТемператураВлажностьДавлениеВетер, м/сВероятность осадков
    02:00Ясно и безоблачно+26°C37 %670 мм4.4 м/с3 %
    05:00Практически безоблачно+23°C42 %670 мм4.3 м/с4 %
    08:00Ясно и безоблачно+23°C45 %671 мм1.3 м/с4 %
    11:00Ясно и безоблачно+31°C25 %673 мм1.3 м/с5 %
    14:00Практически безоблачно+35°C19 %672 мм1.5 м/с5 %
    17:00Практически безоблачно+35°C17 %670 мм2.4 м/с5 %
    20:00Практически безоблачно+32°C19 %670 мм3.2 м/с4 %
    23:00Облачно с прояснениями+28°C24 %670 мм3.6 м/с7 %
  • 04марта
    Понедельник
    +19°
    +38°
    Ясно и безоблачно
    ВремяПогодаТемператураВлажностьДавлениеВетер, м/сВероятность осадков
    02:00Ясно и безоблачно+24°C42 %670 мм2.7 м/с6 %
    05:00Ясно и безоблачно+22°C45 %670 мм3.6 м/с4 %
    08:00Ясно и безоблачно+23°C42 %670 мм3.3 м/с5 %
    11:00Ясно и безоблачно+31°C22 %672 мм3.1 м/с5 %
    14:00Ясно и безоблачно+36°C14 %670 мм3.4 м/с5 %
    17:00Облачно с прояснениями+37°C12 %668 мм2.8 м/с5 %
    20:00Ясно и безоблачно+34°C14 %668 мм4.4 м/с5 %
    23:00Ясно и безоблачно+27°C27 %669 мм8.7 м/с4 %
Мы используем cookies
Соглашаюсь